createdAt,value
2019-04-05T00:00:01.205Z,964.15
2019-04-05T00:05:01.503Z,964.19
2019-04-05T00:10:01.060Z,964.15
2019-04-05T00:15:14.251Z,964.12
2019-04-05T00:20:01.055Z,964.17
2019-04-05T00:25:01.894Z,964.19
2019-04-05T00:30:01.068Z,964.11
2019-04-05T00:35:01.081Z,964.17
2019-04-05T00:40:01.446Z,964.25
2019-04-05T00:45:01.089Z,964.14
2019-04-05T00:50:01.100Z,964.18
2019-04-05T00:55:01.100Z,964.16
2019-04-05T01:00:01.102Z,964.21
2019-04-05T01:05:01.104Z,964.14
2019-04-05T01:10:01.395Z,964.03
2019-04-05T01:15:01.425Z,964.12
2019-04-05T01:20:01.064Z,964.10
2019-04-05T01:25:01.357Z,964.09
2019-04-05T01:30:01.087Z,964.11
2019-04-05T01:35:01.068Z,964.09
2019-04-05T01:40:01.379Z,964.25
2019-04-05T01:45:01.489Z,964.20
2019-04-05T01:50:01.063Z,964.11
2019-04-05T01:55:01.073Z,964.20
2019-04-05T02:00:01.492Z,964.35
2019-04-05T02:05:01.121Z,964.34
2019-04-05T02:10:01.057Z,964.19
2019-04-05T02:15:01.126Z,964.21
2019-04-05T02:20:01.043Z,964.22
2019-04-05T02:25:01.090Z,964.24
2019-04-05T02:30:01.096Z,964.34
2019-04-05T02:35:01.111Z,964.26
2019-04-05T03:20:01.121Z,964.06
2019-04-05T03:25:01.074Z,964.07
2019-04-05T03:30:01.086Z,964.08
2019-04-05T03:35:01.063Z,963.96
2019-04-05T03:40:01.225Z,963.96
2019-04-05T03:45:01.247Z,963.96
2019-04-05T03:50:01.145Z,963.83
2019-04-05T03:55:01.270Z,963.73
2019-04-05T04:00:01.042Z,963.77
2019-04-05T04:05:01.089Z,963.99
2019-04-05T04:10:01.093Z,963.99
2019-04-05T04:15:01.114Z,963.92
2019-04-05T04:20:01.049Z,963.86
2019-04-05T04:25:01.177Z,963.86
2019-04-05T04:30:01.106Z,963.85
2019-04-05T04:35:01.278Z,963.90
2019-04-05T04:40:01.188Z,963.91
2019-04-05T04:45:11.967Z,963.89
2019-04-05T04:50:01.055Z,963.88
2019-04-05T04:55:01.071Z,963.87
2019-04-05T05:00:01.305Z,963.95
2019-04-05T05:05:01.108Z,963.91
2019-04-05T05:10:03.235Z,963.88
2019-04-05T05:15:01.118Z,963.93
2019-04-05T05:20:01.098Z,964.04
2019-04-05T05:25:01.152Z,964.06
2019-04-05T05:30:01.067Z,964.09
2019-04-05T05:35:01.915Z,964.17
2019-04-05T05:40:01.317Z,964.19
2019-04-05T05:45:01.040Z,964.10
2019-04-05T05:50:01.308Z,964.11
2019-04-05T05:55:01.049Z,964.12
2019-04-05T06:00:01.233Z,964.15
2019-04-05T06:05:01.058Z,964.23
2019-04-05T06:10:01.061Z,964.20
2019-04-05T06:15:01.067Z,964.27
2019-04-05T06:20:01.269Z,964.20
2019-04-05T06:25:01.071Z,964.26
2019-04-05T06:30:01.070Z,964.23
2019-04-05T06:35:01.327Z,964.34
2019-04-05T06:40:01.056Z,964.25
2019-04-05T06:45:01.340Z,964.24
2019-04-05T06:50:01.027Z,964.33
2019-04-05T06:55:01.091Z,964.34
2019-04-05T07:00:01.066Z,964.28
2019-04-05T07:05:01.401Z,964.30
2019-04-05T07:10:01.068Z,964.27
2019-04-05T07:15:01.057Z,964.39
2019-04-05T07:20:01.109Z,964.31
2019-04-05T07:25:01.412Z,964.41
2019-04-05T07:30:01.076Z,964.34
2019-04-05T07:35:01.398Z,964.48
2019-04-05T07:40:01.066Z,964.43
2019-04-05T07:45:01.087Z,964.50
2019-04-05T07:50:01.068Z,964.48
2019-04-05T07:55:01.121Z,964.34
2019-04-05T08:00:01.383Z,964.40
2019-04-05T08:05:01.013Z,964.49
2019-04-05T08:10:03.021Z,964.63
2019-04-05T08:15:01.121Z,964.64
2019-04-05T08:20:01.062Z,964.69
2019-04-05T08:25:01.046Z,964.71
2019-04-05T08:30:01.460Z,964.84
2019-04-05T08:35:01.048Z,964.90
2019-04-05T08:40:01.050Z,964.81
2019-04-05T08:45:01.074Z,964.78
2019-04-05T08:50:01.097Z,964.74
2019-04-05T08:55:01.093Z,964.77
2019-04-05T09:00:01.104Z,964.74
2019-04-05T09:05:01.074Z,964.61
2019-04-05T09:10:01.077Z,964.68
2019-04-05T09:15:01.408Z,964.65
2019-04-05T09:20:01.539Z,964.58
2019-04-05T09:25:01.082Z,964.77
2019-04-05T09:30:01.511Z,964.82
2019-04-05T09:35:01.491Z,964.69
2019-04-05T09:40:01.060Z,964.78
2019-04-05T09:45:01.369Z,964.70
2019-04-05T09:50:01.099Z,964.84
2019-04-05T09:55:01.448Z,964.92
2019-04-05T10:00:01.501Z,964.92
2019-04-05T10:05:01.064Z,964.96
2019-04-05T10:10:01.559Z,965.08
2019-04-05T10:15:01.129Z,965.04
2019-04-05T10:20:01.477Z,964.98
2019-04-05T10:25:01.090Z,964.94
2019-04-05T10:30:01.065Z,965.06
2019-04-05T10:35:01.415Z,965.12
2019-04-05T10:40:01.105Z,965.15
2019-04-05T10:45:01.149Z,965.25
2019-04-05T10:50:03.313Z,965.25
2019-04-05T10:55:01.066Z,965.31
2019-04-05T11:00:01.432Z,965.46
2019-04-05T11:05:01.093Z,965.58
2019-04-05T11:10:01.565Z,965.54
2019-04-05T11:15:01.091Z,965.70
2019-04-05T11:20:01.081Z,965.67
2019-04-05T11:25:01.383Z,965.72
2019-04-05T11:30:01.038Z,965.71
2019-04-05T11:35:01.094Z,965.70
2019-04-05T11:40:01.086Z,965.84
2019-04-05T11:45:01.079Z,965.84
2019-04-05T11:50:01.566Z,965.97
2019-04-05T11:55:04.529Z,965.85
2019-04-05T12:00:01.137Z,965.88
2019-04-05T12:05:01.403Z,965.79
2019-04-05T12:10:01.073Z,965.79
2019-04-05T12:15:01.080Z,965.79
2019-04-05T12:20:02.716Z,965.81
2019-04-05T12:25:02.769Z,965.79
2019-04-05T12:30:01.067Z,965.56
2019-04-05T12:35:01.054Z,965.58
2019-04-05T12:40:01.147Z,965.64
2019-04-05T12:45:01.090Z,965.58
2019-04-05T12:50:01.399Z,965.60
2019-04-05T12:55:01.281Z,965.61
2019-04-05T13:00:01.506Z,965.60
2019-04-05T13:05:01.557Z,965.53
2019-04-05T13:10:01.103Z,965.50
2019-04-05T13:15:12.393Z,965.42
2019-04-05T13:20:01.359Z,965.46
2019-04-05T13:25:01.096Z,965.45
2019-04-05T13:30:01.085Z,965.35
2019-04-05T13:35:01.059Z,965.32
2019-04-05T13:40:01.064Z,965.38
2019-04-05T13:45:01.093Z,965.34
2019-04-05T13:50:01.436Z,965.48
2019-04-05T13:55:01.356Z,965.47
2019-04-05T14:00:01.185Z,965.44
2019-04-05T14:05:01.117Z,965.46
2019-04-05T14:10:01.516Z,965.49
2019-04-05T14:15:01.098Z,965.50
2019-04-05T14:20:01.075Z,965.56
2019-04-05T14:25:01.109Z,965.62
2019-04-05T14:30:03.107Z,965.60
2019-04-05T14:35:01.140Z,965.51
2019-04-05T14:40:01.146Z,965.57
2019-04-05T14:45:01.527Z,965.64
2019-04-05T14:50:01.589Z,965.26
2019-04-05T14:55:01.139Z,964.85
2019-04-05T15:00:01.070Z,964.86
2019-04-05T15:05:01.147Z,964.74
2019-04-05T15:10:03.728Z,964.69
2019-04-05T15:15:01.079Z,964.59
2019-04-05T15:20:04.770Z,964.53
2019-04-05T15:25:01.157Z,964.60
2019-04-05T15:30:01.415Z,964.66
2019-04-05T15:35:01.120Z,964.68
2019-04-05T15:40:01.149Z,964.83
2019-04-05T15:45:01.094Z,964.62
2019-04-05T15:50:01.053Z,964.64
2019-04-05T15:55:01.713Z,964.74
2019-04-05T16:00:03.859Z,964.84
2019-04-05T16:05:01.094Z,965.17
2019-04-05T16:10:01.463Z,965.27
2019-04-05T16:15:01.088Z,965.28
2019-04-05T16:20:01.637Z,965.28
2019-04-05T16:25:03.713Z,965.33
2019-04-05T16:30:01.541Z,965.26
2019-04-05T16:35:01.441Z,965.36
2019-04-05T16:40:01.106Z,965.21
2019-04-05T16:45:01.486Z,965.14
2019-04-05T16:50:01.455Z,965.19
2019-04-05T16:55:03.596Z,965.13
2019-04-05T17:00:01.529Z,965.13
2019-04-05T17:05:01.210Z,964.96
2019-04-05T17:10:01.237Z,965.07
2019-04-05T17:15:01.046Z,965.19
2019-04-05T17:20:01.081Z,965.19
2019-04-05T17:25:01.081Z,965.23
2019-04-05T17:30:01.089Z,965.33
2019-04-05T17:35:01.046Z,965.30
2019-04-05T17:40:01.079Z,965.20
2019-04-05T17:45:01.113Z,965.10
2019-04-05T17:50:01.062Z,965.20
2019-04-05T17:55:01.058Z,965.34
2019-04-05T18:00:01.078Z,965.45
2019-04-05T18:05:01.117Z,965.43
2019-04-05T18:10:01.059Z,965.43
2019-04-05T18:15:01.156Z,965.49
2019-04-05T18:20:01.415Z,965.65
2019-04-05T18:25:01.148Z,965.64
2019-04-05T18:30:01.078Z,965.80
2019-04-05T18:35:01.087Z,965.65
2019-04-05T18:40:01.121Z,965.68
2019-04-05T18:45:01.098Z,965.71
2019-04-05T18:50:03.097Z,965.75
2019-04-05T18:55:01.336Z,965.73
2019-04-05T19:00:01.069Z,965.73
2019-04-05T19:05:01.540Z,965.79
2019-04-05T19:10:01.213Z,965.73
2019-04-05T19:15:01.538Z,965.80
2019-04-05T19:20:01.286Z,965.80
2019-04-05T19:25:01.192Z,965.90
2019-04-05T19:50:01.405Z,966.13
2019-04-05T19:55:01.457Z,966.15
2019-04-05T20:00:01.201Z,966.16
2019-04-05T20:05:01.175Z,966.30
2019-04-05T20:10:01.321Z,966.16
2019-04-05T20:15:04.435Z,966.23
2019-04-05T20:20:01.168Z,966.24
2019-04-05T20:25:01.378Z,966.29
2019-04-05T20:30:01.278Z,966.35
2019-04-05T20:35:01.216Z,966.28
2019-04-05T20:40:01.358Z,966.36
2019-04-05T20:45:01.232Z,966.40
2019-04-05T20:50:01.344Z,966.49
2019-04-05T20:55:01.326Z,966.40
2019-04-05T21:00:01.182Z,966.47
2019-04-05T21:05:01.308Z,966.43
2019-04-05T21:10:01.173Z,966.39
2019-04-05T21:15:01.443Z,966.40
2019-04-05T21:20:01.296Z,966.52
2019-04-05T21:25:02.021Z,966.50
2019-04-05T21:30:01.411Z,966.50
2019-04-05T21:35:01.142Z,966.55
2019-04-05T21:40:01.426Z,966.45
2019-04-05T21:45:01.078Z,966.51
2019-04-05T21:50:01.225Z,966.52
2019-04-05T21:55:01.354Z,966.57
2019-04-05T22:00:01.650Z,966.68
2019-04-05T22:05:01.393Z,966.63
2019-04-05T22:10:01.478Z,966.67
2019-04-05T22:15:01.074Z,966.74
2019-04-05T22:20:01.087Z,966.79
2019-04-05T22:25:01.416Z,966.75
2019-04-05T22:30:01.023Z,966.68
2019-04-05T22:35:01.420Z,966.67
2019-04-05T22:40:01.075Z,966.68
2019-04-05T22:45:01.048Z,966.71
2019-04-05T22:50:01.082Z,966.73
2019-04-05T22:55:10.488Z,966.77
2019-04-05T23:00:01.362Z,966.91
2019-04-05T23:05:01.142Z,966.98
2019-04-05T23:10:01.555Z,966.98
2019-04-05T23:15:01.224Z,967.00
2019-04-05T23:20:01.083Z,966.95
2019-04-05T23:25:01.476Z,966.95
2019-04-05T23:30:01.025Z,966.97
2019-04-05T23:35:01.070Z,966.93
2019-04-05T23:40:01.082Z,967.04
2019-04-05T23:45:01.058Z,967.11
2019-04-05T23:50:01.082Z,967.02
2019-04-05T23:55:01.060Z,967.06
